Terminal Aerodrome Forecast
Issued by NWS Wilmington, OH

Current Version | Previous Version | Graphics & Text | Print | Product List | Glossary On
Versions: 1 2 3 4 5 6 7 8 9 10 11 12 13 14 15 16 17 18 19 20 21 22 23
000
FTUS41 KILN 271730
TAFDAY
TAF
KDAY 271730Z 2718/2818 24018G28KT P6SM FEW060 SCT250
     FM272300 21007KT P6SM SCT060 SCT250
     FM280900 19006KT P6SM SCT060 BKN200
     FM281300 20006KT P6SM VCSH BKN060=

USA.gov is the U.S. government's official web portal to all federal, state and local government web resources and services.